Terminal Aerodrome Forecast
Issued by NWS

Home | Current Version | Previous Version | Text Only | Print | Product List | Glossary On
Versions: 1 2 3 4 5 6 7 8 9 10 11 12 13
000
FTUS44 KBMX 300532
TAFTCL
TAF
KTCL 300532Z 3006/3106 18009KT P6SM BKN022
     FM300700 16006KT P6SM OVC015
     FM301000 20006KT 4SM -RA VCTS OVC005CB
     FM301300 34007KT P6SM OVC015
     FM301800 30006KT P6SM FEW250=

USA.gov is the U.S. government's official web portal to all federal, state and local government web resources and services.